Time;durP1;ratioP1;P1;durP2;ratioP2;P2;SDS_P1;SDS_P2;PMS_P1;PMS_P2;Temp;Humidity;BMP_temperature;BMP_pressure;BME280_temperature;BME280_humidity;BME280_pressure;Samples;Min_cycle;Max_cycle;Signal;HPM_P1;HPM_P2
2022/09/03 00:00:25;;;;;;;5.65;2.30;;;;;;;25.16;38.62;101470.00;5001826;28;20033;-62
2022/09/03 00:03:07;;;;;;;1.98;1.75;;;;;;;25.16;38.50;101470.00;5001620;28;20283;-62
2022/09/03 00:05:42;;;;;;;2.58;2.15;;;;;;;25.16;38.60;101472.66;4999928;28;20188;-63
2022/09/03 00:08:20;;;;;;;2.67;2.33;;;;;;;25.16;38.43;101474.50;4997488;28;20037;-62
2022/09/03 00:10:55;;;;;;;2.20;1.90;;;;;;;25.12;38.56;101476.72;4996724;28;20037;-65
2022/09/03 00:13:29;;;;;;;2.05;1.65;;;;;;;25.15;38.69;101475.53;4996355;28;20069;-66
2022/09/03 00:15:56;;;;;;;2.03;1.77;;;;;;;25.13;38.41;101472.22;5003373;28;20077;-66
2022/09/03 00:18:28;;;;;;;1.80;1.70;;;;;;;25.12;38.78;101476.72;4983537;28;20042;-65
2022/09/03 00:21:07;;;;;;;1.70;1.60;;;;;;;25.11;38.67;101472.41;5002079;28;20394;-65
2022/09/03 00:23:39;;;;;;;2.80;1.90;;;;;;;25.08;38.53;101464.81;5001459;28;20435;-65
2022/09/03 00:26:21;;;;;;;1.98;1.83;;;;;;;25.12;38.58;101474.06;4996164;28;20030;-65
2022/09/03 00:29:02;;;;;;;3.65;1.95;;;;;;;25.11;38.57;101472.41;4998722;28;20026;-65
2022/09/03 00:31:38;;;;;;;2.22;1.80;;;;;;;25.08;38.68;101470.16;4998805;28;20045;-66
2022/09/03 00:34:34;;;;;;;2.33;1.80;;;;;;;25.07;38.78;101465.84;4996786;28;20049;-66
2022/09/03 00:36:59;;;;;;;3.00;2.00;;;;;;;25.04;38.83;101460.94;4996966;28;20435;-66
2022/09/03 00:39:27;;;;;;;2.55;1.95;;;;;;;25.08;38.78;101466.69;4981028;28;20049;-66
2022/09/03 00:42:16;;;;;;;2.47;1.90;;;;;;;25.07;38.89;101465.03;5001399;28;20081;-66
2022/09/03 00:44:48;;;;;;;2.40;1.70;;;;;;;25.06;38.96;101463.38;5002374;28;20041;-66
2022/09/03 00:47:28;;;;;;;1.73;1.63;;;;;;;25.05;38.94;101464.41;4997998;28;20037;-66
2022/09/03 00:50:21;;;;;;;1.83;1.60;;;;;;;25.03;38.77;101458.47;4995080;28;20160;-66
2022/09/03 00:52:56;;;;;;;2.58;1.70;;;;;;;25.02;38.98;101462.16;4996086;28;20616;-66
2022/09/03 00:55:31;;;;;;;2.35;1.73;;;;;;;25.00;38.98;101457.84;4997550;28;20495;-66
2022/09/03 00:58:12;;;;;;;1.88;1.70;;;;;;;25.02;39.12;101456.81;5002417;28;20484;-66
2022/09/03 01:00:42;;;;;;;2.28;1.88;;;;;;;24.98;39.14;101457.19;4999235;28;20167;-64
2022/09/03 01:03:12;;;;;;;2.35;1.70;;;;;;;24.96;39.06;101453.91;4999846;28;20056;-65
2022/09/03 01:06:04;;;;;;;1.77;1.65;;;;;;;25.00;38.83;101462.34;4982020;28;20045;-64
2022/09/03 01:09:08;;;;;;;1.80;1.70;;;;;;;24.98;39.18;101457.19;4990694;28;20049;-65
2022/09/03 01:11:55;;;;;;;1.98;1.73;;;;;;;24.99;39.03;101458.88;4983718;28;20049;-65
2022/09/03 01:14:30;;;;;;;1.83;1.60;;;;;;;24.98;39.04;101456.38;4998619;28;20062;-65
2022/09/03 01:17:23;;;;;;;4.38;1.60;;;;;;;24.97;39.20;101457.41;4998585;28;20910;-65
2022/09/03 01:20:03;;;;;;;2.08;1.60;;;;;;;24.97;39.11;101460.06;5002773;28;20648;-65
2022/09/03 01:23:02;;;;;;;1.65;1.55;;;;;;;24.94;39.13;101455.09;4977433;28;20124;-66
2022/09/03 01:25:58;;;;;;;2.15;1.67;;;;;;;24.97;39.11;101460.06;4994983;28;20041;-65
2022/09/03 01:29:20;;;;;;;1.65;1.55;;;;;;;24.94;39.18;101455.91;4996157;28;20128;-66
2022/09/03 01:32:14;;;;;;;1.95;1.48;;;;;;;24.96;39.22;101453.91;4968425;28;20626;-66
2022/09/03 01:34:49;;;;;;;1.65;1.55;;;;;;;24.92;39.42;101463.28;4999694;28;20736;-66
2022/09/03 01:37:41;;;;;;;2.35;1.40;;;;;;;24.92;39.33;101465.13;4977366;28;20041;-64
2022/09/03 01:40:28;;;;;;;2.33;1.80;;;;;;;24.92;39.29;101463.28;5001543;28;20657;-66
2022/09/03 01:43:04;;;;;;;2.38;1.50;;;;;;;24.91;39.15;101463.50;5000518;28;20034;-65
2022/09/03 01:45:42;;;;;;;2.03;1.83;;;;;;;24.89;38.99;101461.03;5000537;28;20543;-65
2022/09/03 01:48:29;;;;;;;2.42;1.90;;;;;;;24.87;39.18;101460.41;4996482;28;20033;-64
2022/09/03 01:51:18;;;;;;;2.53;1.58;;;;;;;24.89;39.48;101460.22;4997261;28;20053;-64
2022/09/03 01:54:02;;;;;;;1.85;1.67;;;;;;;24.89;39.35;101461.03;5000540;28;20494;-64
2022/09/03 01:56:42;;;;;;;2.15;1.70;;;;;;;24.89;39.21;101462.88;4994169;28;20052;-65
2022/09/03 01:59:32;;;;;;;1.65;1.50;;;;;;;24.84;39.49;101458.16;4998409;28;20049;-65
2022/09/03 02:02:05;;;;;;;1.83;1.67;;;;;;;24.85;39.28;101456.31;4998063;28;20084;-64
2022/09/03 02:04:31;;;;;;;2.70;1.65;;;;;;;24.86;39.43;101457.94;5002908;28;20051;-64
2022/09/03 02:06:59;;;;;;;1.85;1.65;;;;;;;24.86;39.32;101466.75;4996865;28;20046;-64
2022/09/03 02:09:25;;;;;;;1.98;1.48;;;;;;;24.90;39.11;101467.19;4995472;28;20038;-65
2022/09/03 02:12:17;;;;;;;3.53;1.83;;;;;;;24.88;39.13;101471.88;4992183;28;20038;-65
2022/09/03 02:14:42;;;;;;;2.58;1.60;;;;;;;24.76;39.41;101458.28;4995972;28;20978;-65
2022/09/03 02:17:10;;;;;;;1.75;1.63;;;;;;;24.80;39.35;101453.41;4999612;28;20042;-64
2022/09/03 02:19:37;;;;;;;1.50;1.40;;;;;;;24.82;39.34;101467.34;4998394;28;20053;-64
2022/09/03 02:22:04;;;;;;;3.15;1.65;;;;;;;24.82;39.34;101457.53;4996149;28;20050;-64
2022/09/03 02:24:31;;;;;;;1.50;1.40;;;;;;;24.82;39.23;101462.03;4995494;28;20141;-64
2022/09/03 02:26:57;;;;;;;1.70;1.60;;;;;;;24.81;39.35;101461.22;4973637;28;20042;-65
2022/09/03 02:29:23;;;;;;;1.83;1.70;;;;;;;24.81;39.30;101455.06;4996882;28;20049;-65
2022/09/03 02:31:48;;;;;;;2.42;1.70;;;;;;;24.83;39.24;101461.00;4999402;28;20038;-64
2022/09/03 02:34:14;;;;;;;3.05;1.60;;;;;;;24.79;39.38;101460.59;4999650;28;20416;-64
2022/09/03 02:36:44;;;;;;;1.58;1.48;;;;;;;24.81;39.53;101469.19;4998192;28;20499;-64
2022/09/03 02:39:11;;;;;;;2.45;1.70;;;;;;;24.80;39.37;101459.56;4998705;28;20038;-65
2022/09/03 02:41:38;;;;;;;1.60;1.50;;;;;;;24.80;39.29;101472.06;5000155;28;20415;-64
2022/09/03 02:44:24;;;;;;;2.45;1.70;;;;;;;24.79;39.57;101460.59;4992775;28;20026;-65
2022/09/03 02:47:00;;;;;;;1.98;1.40;;;;;;;24.58;39.21;101434.84;4994298;28;20078;-65
2022/09/03 02:49:27;;;;;;;1.48;1.38;;;;;;;24.77;39.51;101469.78;4998531;28;20038;-65
2022/09/03 02:51:59;;;;;;;1.75;1.45;;;;;;;24.73;39.20;101447.22;5000484;28;20399;-64
2022/09/03 02:54:25;;;;;;;1.73;1.63;;;;;;;24.76;39.56;101455.63;4998204;28;20031;-64
2022/09/03 02:56:51;;;;;;;1.65;1.55;;;;;;;24.76;39.32;101460.97;4999856;28;20125;-64
2022/09/03 02:59:16;;;;;;;2.75;1.42;;;;;;;24.77;39.33;101462.59;4996260;28;20041;-64
2022/09/03 03:01:42;;;;;;;1.83;1.60;;;;;;;24.76;39.47;101460.97;4996762;28;20733;-65
2022/09/03 03:04:07;;;;;;;2.47;1.40;;;;;;;24.77;39.20;101467.09;4998636;28;20038;-65
2022/09/03 03:06:33;;;;;;;2.10;1.70;;;;;;;24.74;39.41;101468.31;5004664;28;20037;-65
2022/09/03 03:09:00;;;;;;;2.95;1.77;;;;;;;24.70;39.35;101456.44;5003295;28;20181;-65
2022/09/03 03:11:26;;;;;;;1.40;1.30;;;;;;;24.70;39.69;101457.25;5001883;28;20045;-65
2022/09/03 03:13:51;;;;;;;1.92;1.25;;;;;;;24.70;39.30;101459.09;5003110;28;20053;-64
2022/09/03 03:16:17;;;;;;;1.75;1.52;;;;;;;24.73;39.48;101464.03;5002601;28;20068;-65
2022/09/03 03:18:46;;;;;;;1.50;1.40;;;;;;;24.71;39.63;101458.91;5002626;28;20041;-66
2022/09/03 03:21:14;;;;;;;2.63;1.80;;;;;;;24.71;39.50;101458.91;4998008;28;20037;-66
2022/09/03 03:23:41;;;;;;;3.10;1.63;;;;;;;24.68;39.39;101455.81;5003836;28;20056;-67
2022/09/03 03:26:09;;;;;;;2.08;1.58;;;;;;;24.70;39.56;101459.09;5002311;28;20412;-66
2022/09/03 03:28:34;;;;;;;1.60;1.50;;;;;;;24.70;39.52;101459.91;4999574;28;20050;-66
2022/09/03 03:31:14;;;;;;;1.60;1.50;;;;;;;24.68;39.22;101458.47;5002487;28;20423;-65
2022/09/03 03:33:40;;;;;;;1.60;1.50;;;;;;;24.68;39.86;101456.63;4996704;28;20036;-66
2022/09/03 03:36:12;;;;;;;2.70;1.65;;;;;;;24.68;39.57;101455.81;5003139;28;20104;-64
2022/09/03 03:38:38;;;;;;;1.40;1.30;;;;;;;24.69;39.42;101457.44;4998197;28;20062;-65
2022/09/03 03:41:12;;;;;;;1.60;1.50;;;;;;;24.69;39.37;101458.28;5002956;28;20069;-65
2022/09/03 03:43:38;;;;;;;1.48;1.38;;;;;;;24.68;39.58;101456.63;5000764;28;20034;-66
2022/09/03 03:46:04;;;;;;;2.00;1.52;;;;;;;24.69;39.35;101457.44;4999344;28;20037;-65
2022/09/03 03:48:30;;;;;;;3.10;1.67;;;;;;;24.68;39.78;101461.13;5002006;28;20755;-65
2022/09/03 03:51:00;;;;;;;1.60;1.50;;;;;;;24.64;39.76;101451.91;5000600;28;20772;-65
2022/09/03 03:53:25;;;;;;;2.72;1.90;;;;;;;24.66;39.63;101458.66;5000785;28;20523;-66
2022/09/03 03:55:58;;;;;;;1.77;1.50;;;;;;;24.62;39.41;101451.28;4999971;28;20034;-65
2022/09/03 03:58:25;;;;;;;1.75;1.60;;;;;;;24.66;39.54;101460.50;4999820;28;20057;-66
2022/09/03 04:00:51;;;;;;;2.33;1.50;;;;;;;24.65;39.45;101464.19;4997954;28;21229;-66
2022/09/03 04:03:17;;;;;;;1.50;1.40;;;;;;;24.62;39.55;101457.44;5000502;28;20174;-66
2022/09/03 04:05:43;;;;;;;2.08;1.88;;;;;;;24.65;39.47;101456.22;5004077;28;20172;-66
2022/09/03 04:08:08;;;;;;;1.58;1.48;;;;;;;24.64;39.40;101465.22;5002390;28;20512;-65
2022/09/03 04:10:35;;;;;;;1.98;1.73;;;;;;;24.63;39.50;101467.06;4997536;28;20435;-66
2022/09/03 04:13:01;;;;;;;1.58;1.48;;;;;;;24.62;39.40;101470.75;4999313;28;20049;-65
2022/09/03 04:15:26;;;;;;;2.63;1.70;;;;;;;24.62;39.64;101472.59;4999520;28;20544;-66
2022/09/03 04:17:55;;;;;;;1.70;1.60;;;;;;;24.62;39.27;101461.94;4998289;28;20129;-65
2022/09/03 04:20:21;;;;;;;1.85;1.52;;;;;;;24.60;39.61;101467.47;5002851;28;20120;-64
2022/09/03 04:22:46;;;;;;;2.53;1.80;;;;;;;24.60;39.70;101459.47;4997943;28;20496;-64
2022/09/03 04:25:12;;;;;;;1.60;1.50;;;;;;;24.60;39.46;101459.47;5010837;28;20044;-64
2022/09/03 04:27:37;;;;;;;1.95;1.70;;;;;;;24.60;39.42;101455.97;5004499;28;20038;-65
2022/09/03 04:30:03;;;;;;;1.98;1.67;;;;;;;24.58;39.56;101460.66;4997511;28;20092;-64
2022/09/03 04:35:13;;;;;;;2.28;1.80;;;;;;;24.58;39.44;101450.00;5002107;28;20046;-66
2022/09/03 04:37:38;;;;;;;1.73;1.63;;;;;;;24.50;39.58;101440.34;4998741;28;20053;-65
2022/09/03 04:40:04;;;;;;;2.03;1.80;;;;;;;24.59;39.70;101455.13;5000292;28;20042;-66
2022/09/03 04:42:30;;;;;;;3.33;1.60;;;;;;;24.58;39.58;101455.31;4997472;28;20041;-66
2022/09/03 04:44:55;;;;;;;2.15;1.70;;;;;;;24.53;39.54;101450.59;4998121;28;20037;-66
2022/09/03 04:47:21;;;;;;;2.20;1.48;;;;;;;24.57;39.36;101448.34;4997932;28;20614;-66
2022/09/03 04:49:46;;;;;;;1.45;1.35;;;;;;;24.56;39.67;101450.19;5002314;28;20053;-65
2022/09/03 04:52:12;;;;;;;2.03;1.80;;;;;;;24.56;39.49;101457.38;4998639;28;20531;-65
2022/09/03 04:54:37;;;;;;;3.75;1.80;;;;;;;24.58;39.73;101458.00;5003054;28;20034;-66
2022/09/03 04:57:03;;;;;;;1.70;1.60;;;;;;;24.53;39.54;101453.25;5000111;28;20815;-66
2022/09/03 04:59:28;;;;;;;1.73;1.63;;;;;;;24.54;39.68;101454.91;4985267;28;20030;-65
2022/09/03 05:01:55;;;;;;;2.60;1.98;;;;;;;24.56;39.49;101460.03;5000163;28;20038;-65
2022/09/03 05:04:20;;;;;;;1.73;1.63;;;;;;;24.55;39.59;101459.22;4980448;28;20105;-64
2022/09/03 05:06:46;;;;;;;1.90;1.80;;;;;;;24.53;39.46;101457.75;5001859;28;20038;-66
2022/09/03 05:09:12;;;;;;;1.83;1.70;;;;;;;24.55;40.02;101459.22;4980431;28;20042;-65
2022/09/03 05:11:37;;;;;;;2.33;1.70;;;;;;;24.54;39.36;101454.91;4983940;28;20037;-66
2022/09/03 05:14:04;;;;;;;1.63;1.52;;;;;;;24.52;39.47;101453.47;4999003;28;20483;-66
2022/09/03 05:16:30;;;;;;;2.35;1.80;;;;;;;24.51;39.58;101449.97;4983682;28;20518;-65
2022/09/03 05:18:58;;;;;;;2.08;1.95;;;;;;;24.52;39.50;101466.78;5000893;28;20037;-66
2022/09/03 05:21:24;;;;;;;2.90;1.77;;;;;;;24.52;39.44;101459.59;4985429;28;20047;-65
2022/09/03 05:23:51;;;;;;;1.98;1.83;;;;;;;24.52;39.55;101462.25;4999426;28;20046;-65
2022/09/03 05:26:23;;;;;;;2.42;2.15;;;;;;;24.49;39.65;101460.00;4999438;28;20125;-66
2022/09/03 05:28:57;;;;;;;1.80;1.70;;;;;;;24.52;39.52;101461.44;4978065;28;20033;-66
2022/09/03 05:31:25;;;;;;;2.88;1.88;;;;;;;24.49;39.56;101456.53;4966227;28;20412;-65
2022/09/03 05:33:53;;;;;;;2.70;1.88;;;;;;;24.50;39.39;101451.00;4982796;28;20066;-65
2022/09/03 05:36:22;;;;;;;1.70;1.60;;;;;;;24.50;39.61;101451.00;4997990;28;20038;-66
2022/09/03 05:38:48;;;;;;;2.22;2.00;;;;;;;24.49;39.53;101443.22;5001118;28;20091;-65
2022/09/03 05:41:16;;;;;;;3.85;2.00;;;;;;;24.50;39.45;101444.84;4998560;28;20038;-66
2022/09/03 05:43:42;;;;;;;3.65;2.17;;;;;;;24.49;39.44;101445.88;4998685;28;20045;-66
2022/09/03 05:46:10;;;;;;;3.08;2.05;;;;;;;24.45;39.71;101444.63;4997315;28;20037;-65
2022/09/03 05:48:37;;;;;;;1.83;1.73;;;;;;;24.50;39.59;101452.84;5002047;28;20771;-66
2022/09/03 05:51:11;;;;;;;2.33;1.92;;;;;;;24.47;39.48;101439.91;4979553;28;20121;-65
2022/09/03 05:53:39;;;;;;;3.22;2.10;;;;;;;24.49;39.59;101449.34;5001302;28;20053;-67
2022/09/03 05:56:12;;;;;;;2.22;1.60;;;;;;;24.47;39.77;101446.06;5001672;28;20381;-66
2022/09/03 05:58:43;;;;;;;2.28;2.00;;;;;;;24.48;39.73;101447.72;4996733;28;20048;-65
2022/09/03 06:01:19;;;;;;;2.17;1.85;;;;;;;24.49;39.58;101444.03;4980492;28;20037;-67
2022/09/03 06:03:47;;;;;;;3.47;1.80;;;;;;;24.48;39.53;101442.38;4995825;28;20381;-65
2022/09/03 06:06:14;;;;;;;1.80;1.60;;;;;;;24.49;39.60;101448.53;4998685;28;20076;-66
2022/09/03 06:08:41;;;;;;;2.10;1.75;;;;;;;24.47;39.77;101438.06;4999139;28;20042;-66
2022/09/03 06:11:08;;;;;;;2.47;1.75;;;;;;;24.48;39.77;101452.22;4992449;28;20065;-65
2022/09/03 06:13:35;;;;;;;2.20;1.75;;;;;;;24.46;39.75;101446.25;4998887;28;20591;-64
2022/09/03 06:16:05;;;;;;;2.10;1.88;;;;;;;24.44;39.70;101454.44;4996956;28;20180;-65
2022/09/03 06:18:31;;;;;;;2.47;1.80;;;;;;;24.47;39.56;101447.91;4997429;28;22097;-65
2022/09/03 06:20:59;;;;;;;2.80;1.80;;;;;;;24.47;39.47;101451.38;5000562;28;20080;-65
2022/09/03 06:23:26;;;;;;;2.53;2.20;;;;;;;24.46;39.55;101457.72;4979444;28;20057;-65
2022/09/03 06:26:13;;;;;;;2.65;1.77;;;;;;;24.43;39.76;101442.16;4997106;28;20077;-64
2022/09/03 06:28:42;;;;;;;1.80;1.70;;;;;;;24.45;39.56;101439.28;5001756;28;20564;-65
2022/09/03 06:31:10;;;;;;;1.90;1.77;;;;;;;24.44;39.59;101435.00;4994311;28;20038;-65
2022/09/03 06:33:36;;;;;;;1.88;1.77;;;;;;;24.47;39.39;101450.56;4999062;28;20038;-65
2022/09/03 06:36:07;;;;;;;2.10;1.90;;;;;;;24.46;39.47;101452.41;4998971;28;20034;-65
2022/09/03 06:38:34;;;;;;;2.67;2.13;;;;;;;24.46;39.45;101447.09;5001902;28;20038;-65
2022/09/03 06:41:02;;;;;;;5.05;1.92;;;;;;;24.48;39.38;101441.56;5002617;28;20088;-64
2022/09/03 06:43:35;;;;;;;2.90;2.13;;;;;;;24.50;39.16;101444.84;4997873;28;20076;-64
2022/09/03 06:46:04;;;;;;;3.35;1.85;;;;;;;24.48;39.28;101445.03;4997628;28;20120;-65
2022/09/03 06:48:31;;;;;;;5.47;2.15;;;;;;;24.50;38.97;101456.31;5001108;28;20037;-65
2022/09/03 06:51:02;;;;;;;2.90;1.73;;;;;;;24.49;39.21;101443.22;5003838;28;20396;-65
2022/09/03 06:53:30;;;;;;;3.28;1.92;;;;;;;24.52;39.42;101448.13;5002072;28;20037;-65
2022/09/03 06:55:58;;;;;;;2.58;1.95;;;;;;;24.54;39.11;101446.09;5000924;28;20069;-64
2022/09/03 06:58:27;;;;;;;2.90;1.98;;;;;;;24.53;39.25;101447.94;5001356;28;20124;-65
2022/09/03 07:00:52;;;;;;;2.00;1.80;;;;;;;24.57;39.16;101451.03;5000573;28;20141;-64
2022/09/03 07:03:19;;;;;;;2.42;1.83;;;;;;;24.57;39.21;101453.69;5003459;28;20046;-65
2022/09/03 07:05:45;;;;;;;4.70;1.95;;;;;;;24.58;39.14;101444.69;4999391;28;20484;-64
2022/09/03 07:08:11;;;;;;;2.13;1.92;;;;;;;24.58;39.11;101448.16;5001952;28;20046;-65
2022/09/03 07:10:37;;;;;;;2.90;1.90;;;;;;;24.62;38.99;101454.75;5002545;28;20049;-65
2022/09/03 07:13:05;;;;;;;3.60;1.98;;;;;;;24.58;38.80;101448.16;5000826;28;20125;-64
2022/09/03 07:15:32;;;;;;;2.65;1.60;;;;;;;24.62;38.99;101448.63;5000575;28;20049;-65
2022/09/03 07:17:58;;;;;;;2.05;1.85;;;;;;;24.63;38.82;101452.91;4979494;28;20053;-65
2022/09/03 07:20:23;;;;;;;1.88;1.70;;;;;;;24.64;39.02;101449.25;4997909;28;20460;-64
2022/09/03 07:22:49;;;;;;;3.13;2.00;;;;;;;24.66;38.82;101447.19;4998002;28;20396;-65
2022/09/03 07:25:14;;;;;;;2.20;1.95;;;;;;;24.63;38.94;101443.09;4994790;28;20041;-65
2022/09/03 07:27:40;;;;;;;1.70;1.60;;;;;;;24.64;38.51;101449.25;4980832;28;20065;-66
2022/09/03 07:30:08;;;;;;;3.38;2.00;;;;;;;24.69;38.73;101439.63;4995394;28;20120;-64
2022/09/03 07:32:36;;;;;;;1.80;1.70;;;;;;;24.66;38.67;101440.03;4999523;28;20065;-66
2022/09/03 07:35:02;;;;;;;2.38;1.88;;;;;;;24.70;38.81;101440.44;4994875;28;20038;-66
2022/09/03 07:37:27;;;;;;;1.90;1.80;;;;;;;24.69;38.57;101441.47;5000109;28;20037;-65
2022/09/03 07:39:53;;;;;;;2.65;1.80;;;;;;;24.70;38.55;101446.59;4996650;28;20541;-66
2022/09/03 07:42:19;;;;;;;2.95;2.20;;;;;;;24.65;38.67;101432.25;4995676;28;20066;-66
2022/09/03 07:44:45;;;;;;;2.58;2.00;;;;;;;24.82;38.22;101451.38;4997250;28;20507;-72
2022/09/03 07:47:12;;;;;;;4.45;2.10;;;;;;;24.88;36.20;101453.25;5000549;28;20196;-69
2022/09/03 07:49:37;;;;;;;2.30;2.10;;;;;;;24.73;36.07;101440.06;4995053;28;20049;-68
2022/09/03 07:52:03;;;;;;;4.50;2.30;;;;;;;24.68;35.73;101456.63;4993744;28;20044;-68
2022/09/03 07:54:29;;;;;;;3.33;2.00;;;;;;;24.63;35.54;101443.09;4995802;28;20039;-70
2022/09/03 07:56:54;;;;;;;4.97;1.95;;;;;;;24.67;35.96;101449.66;4997722;28;20042;-70
2022/09/03 07:59:21;;;;;;;2.97;1.83;;;;;;;24.67;36.37;101452.31;4997473;28;20049;-70
2022/09/03 08:01:47;;;;;;;2.50;2.20;;;;;;;24.72;36.68;101454.38;4998974;28;20117;-71
2022/09/03 08:04:13;;;;;;;2.90;2.00;;;;;;;24.73;36.89;101442.72;4998632;28;20056;-70
2022/09/03 08:06:38;;;;;;;3.22;1.98;;;;;;;24.74;37.17;101451.53;5000972;28;20045;-70
2022/09/03 08:09:07;;;;;;;2.60;1.75;;;;;;;24.77;36.94;101456.44;4995819;28;20070;-69
2022/09/03 08:11:36;;;;;;;2.45;2.03;;;;;;;24.71;37.17;101444.75;4986936;28;20175;-73
2022/09/03 08:14:05;;;;;;;2.43;1.90;;;;;;;24.76;37.18;101450.31;5001049;28;20041;-72
2022/09/03 08:16:38;;;;;;;3.10;1.83;;;;;;;24.73;37.13;101441.88;5000407;28;20050;-74
2022/09/03 08:19:04;;;;;;;3.10;2.05;;;;;;;24.77;37.02;101448.47;4996274;28;20046;-74
2022/09/03 08:21:30;;;;;;;3.60;2.20;;;;;;;24.71;36.63;101448.25;4982535;28;20033;-74
2022/09/03 08:24:02;;;;;;;2.20;2.00;;;;;;;24.77;36.50;101448.47;4996266;28;20049;-73
2022/09/03 08:26:34;;;;;;;2.63;2.15;;;;;;;24.77;36.67;101443.97;5001691;28;20042;-75
2022/09/03 08:29:00;;;;;;;3.40;2.20;;;;;;;24.80;36.89;101445.44;4999883;28;21244;-74
2022/09/03 08:31:27;;;;;;;3.83;1.80;;;;;;;24.81;37.02;101445.22;4996129;28;20031;-74
2022/09/03 08:33:54;;;;;;;3.25;1.95;;;;;;;24.82;36.75;101446.88;4981938;28;20045;-75
2022/09/03 08:36:25;;;;;;;4.75;2.30;;;;;;;24.83;36.65;101453.03;5000070;28;20050;-74
2022/09/03 08:38:54;;;;;;;6.20;2.38;;;;;;;24.77;37.05;101443.13;5002961;28;20037;-74
2022/09/03 08:41:39;;;;;;;5.75;2.20;;;;;;;24.84;36.72;101441.34;5001715;28;20545;-74
2022/09/03 08:44:17;;;;;;;3.67;2.15;;;;;;;24.84;37.03;101441.34;5000000;28;20025;-74
2022/09/03 08:46:53;;;;;;;2.80;1.80;;;;;;;24.88;36.93;101442.59;5000883;28;20038;-74
2022/09/03 08:49:38;;;;;;;3.05;1.90;;;;;;;24.84;37.20;101442.16;4998526;28;20052;-74
2022/09/03 08:52:17;;;;;;;3.25;2.10;;;;;;;24.86;37.21;101445.44;5001771;28;20041;-74
2022/09/03 08:54:43;;;;;;;2.88;2.05;;;;;;;24.88;37.36;101445.25;4998735;28;20132;-74
2022/09/03 08:57:11;;;;;;;3.03;1.83;;;;;;;24.88;37.12;101439.91;5003631;28;20431;-75
2022/09/03 08:59:36;;;;;;;3.40;1.90;;;;;;;24.88;37.34;101440.75;4985439;28;20088;-74
2022/09/03 09:02:20;;;;;;;2.67;1.70;;;;;;;24.90;37.25;101432.53;4997797;28;20120;-74
2022/09/03 09:04:51;;;;;;;5.05;1.77;;;;;;;24.91;37.18;101440.34;4996945;28;20041;-74
2022/09/03 09:07:25;;;;;;;1.80;1.65;;;;;;;24.89;37.17;101436.22;5001237;28;20492;-74
2022/09/03 09:10:06;;;;;;;2.85;1.70;;;;;;;24.91;37.27;101434.19;5001586;28;20598;-75
2022/09/03 09:12:46;;;;;;;4.20;2.17;;;;;;;24.89;36.82;101434.38;5003444;28;20033;-75
2022/09/03 09:15:41;;;;;;;3.70;2.00;;;;;;;24.91;36.58;101439.53;4982646;28;20494;-75
2022/09/03 09:18:16;;;;;;;3.22;2.10;;;;;;;24.89;36.32;101431.72;4964945;28;20119;-75
2022/09/03 09:20:48;;;;;;;3.35;1.90;;;;;;;24.89;36.51;101430.91;4997402;28;20113;-77
2022/09/03 09:23:18;;;;;;;2.08;1.75;;;;;;;24.90;36.78;101428.03;4995389;28;20046;-75
2022/09/03 09:25:48;;;;;;;3.55;1.98;;;;;;;24.86;36.75;101423.31;5000618;28;20091;-75
2022/09/03 09:28:22;;;;;;;2.50;1.85;;;;;;;24.87;36.96;101427.63;4994974;28;20554;-74
2022/09/03 09:30:51;;;;;;;2.10;1.92;;;;;;;24.91;36.64;101428.84;4995430;28;20046;-73
2022/09/03 09:33:18;;;;;;;3.65;2.00;;;;;;;24.93;36.29;101427.63;4993750;28;20105;-73
2022/09/03 09:35:44;;;;;;;2.03;1.83;;;;;;;24.96;36.29;101429.09;4995780;28;20058;-76
2022/09/03 09:38:11;;;;;;;1.92;1.70;;;;;;;24.94;36.41;101428.47;4993113;28;20539;-76
2022/09/03 09:40:42;;;;;;;4.18;1.90;;;;;;;24.95;36.66;101425.59;4992243;28;20038;-75
2022/09/03 09:43:15;;;;;;;2.28;1.90;;;;;;;24.94;36.90;101425.78;4994168;28;20049;-75
2022/09/03 09:45:47;;;;;;;5.55;2.65;;;;;;;24.94;36.73;101418.63;4990560;28;20579;-76
2022/09/03 09:48:25;;;;;;;3.28;2.08;;;;;;;24.95;36.63;101425.59;4995980;28;20044;-74
2022/09/03 09:51:12;;;;;;;4.20;2.70;;;;;;;25.13;35.73;101422.41;4958453;28;20579;-65
2022/09/03 09:53:39;;;;;;;5.32;2.95;;;;;;;25.20;35.36;101417.09;4997338;28;20038;-65
2022/09/03 09:56:05;;;;;;;5.57;2.83;;;;;;;25.26;35.11;101424.28;4997522;28;20033;-65
2022/09/03 09:58:33;;;;;;;4.93;2.58;;;;;;;25.26;35.23;101406.47;4994202;28;21270;-68
2022/09/03 10:01:12;;;;;;;3.33;2.13;;;;;;;25.34;35.21;101416.13;4999269;28;20630;-66
2022/09/03 10:03:53;;;;;;;2.97;2.30;;;;;;;25.37;35.02;101413.06;4996160;28;20040;-66
2022/09/03 10:09:10;;;;;;;5.00;2.00;;;;;;;25.35;34.71;101400.94;4988979;28;20053;-72
2022/09/03 10:11:39;;;;;;;2.28;2.00;;;;;;;25.49;34.06;101422.06;4996922;28;20063;-75
2022/09/03 10:14:14;;;;;;;2.55;2.00;;;;;;;25.45;34.46;101407.50;4999771;28;20158;-72
2022/09/03 10:16:47;;;;;;;4.95;2.20;;;;;;;25.52;34.40;101411.03;4997555;28;20037;-71
2022/09/03 10:19:22;;;;;;;3.45;2.25;;;;;;;25.56;34.70;101414.09;4995174;28;20038;-72
2022/09/03 10:21:57;;;;;;;3.17;2.20;;;;;;;25.59;34.26;101411.03;4997144;28;20584;-72
2022/09/03 10:24:25;;;;;;;4.07;2.35;;;;;;;25.63;34.25;101414.91;4972425;28;20413;-73
2022/09/03 10:26:51;;;;;;;3.58;2.58;;;;;;;25.65;34.22;101417.38;4990310;28;20667;-73
2022/09/03 10:29:20;;;;;;;2.15;1.83;;;;;;;25.68;34.21;101409.03;4995204;28;20041;-73
2022/09/03 10:32:01;;;;;;;3.60;2.20;;;;;;;25.67;34.24;101412.66;4995718;28;20121;-72
2022/09/03 10:34:33;;;;;;;2.75;1.90;;;;;;;25.73;34.16;101406.56;4980540;28;20041;-72
2022/09/03 10:37:18;;;;;;;2.65;1.80;;;;;;;25.73;34.27;101414.56;4995927;28;20088;-73
2022/09/03 10:39:52;;;;;;;2.95;1.73;;;;;;;25.74;33.58;101408.19;4985759;28;20034;-66
2022/09/03 10:42:20;;;;;;;3.90;2.65;;;;;;;25.77;33.88;101402.44;4982911;28;20049;-67
2022/09/03 10:45:31;;;;;;;2.55;2.17;;;;;;;25.79;34.11;101403.88;4994441;28;20030;-64
2022/09/03 10:48:03;;;;;;;3.25;2.13;;;;;;;25.82;33.98;101413.31;4953234;28;20391;-65
2022/09/03 10:50:50;;;;;;;4.43;2.28;;;;;;;25.83;33.87;101420.28;4995024;28;20065;-66
2022/09/03 10:53:56;;;;;;;3.30;2.10;;;;;;;25.84;33.67;101414.75;4990003;28;20037;-66
2022/09/03 10:56:41;;;;;;;2.10;1.88;;;;;;;25.85;33.73;101400.41;4975860;28;20457;-74
2022/09/03 10:59:26;;;;;;;4.25;2.10;;;;;;;25.87;33.84;101402.88;4996259;28;20038;-73
2022/09/03 11:02:24;;;;;;;5.47;2.10;;;;;;;25.88;34.11;101415.19;4997945;28;20037;-70
2022/09/03 11:04:53;;;;;;;3.08;2.08;;;;;;;25.92;33.26;101410.25;4995987;28;20084;-72
2022/09/03 11:07:27;;;;;;;7.10;2.60;;;;;;;25.92;33.52;101408.41;4998841;28;20381;-73
2022/09/03 11:10:17;;;;;;;5.03;2.28;;;;;;;25.95;33.46;101407.16;4997497;28;20494;-73
2022/09/03 11:13:03;;;;;;;4.18;2.10;;;;;;;25.90;34.19;101405.13;4967991;28;20077;-74
2022/09/03 11:15:38;;;;;;;4.32;1.80;;;;;;;25.86;34.22;101395.88;4973026;28;20037;-73
2022/09/03 11:18:42;;;;;;;3.30;1.92;;;;;;;25.85;34.10;101396.88;4992156;28;20701;-73
2022/09/03 11:21:11;;;;;;;4.15;2.17;;;;;;;25.86;33.64;101402.03;4985899;28;20147;-73
2022/09/03 11:23:41;;;;;;;5.32;2.17;;;;;;;25.87;34.13;101390.34;4987478;28;20045;-72
2022/09/03 11:26:11;;;;;;;3.33;2.08;;;;;;;25.87;34.40;101389.53;4994118;28;20045;-72
2022/09/03 11:28:49;;;;;;;;;;;;;;;25.86;34.74;101394.03;4982692;28;20136;-66
2022/09/03 11:31:32;;;;;;;2.38;1.90;;;;;;;25.86;34.75;101391.38;4985922;28;19964;-65
2022/09/03 11:34:05;;;;;;;3.55;2.05;;;;;;;25.87;34.96;101368.19;4993430;28;20057;-65
2022/09/03 11:36:33;;;;;;;3.17;2.10;;;;;;;25.82;34.93;101384.78;4996141;28;20033;-65
2022/09/03 11:38:59;;;;;;;4.40;1.87;;;;;;;25.87;34.94;101386.84;4993684;28;20067;-65
2022/09/03 11:41:26;;;;;;;3.88;2.20;;;;;;;25.89;34.94;101390.94;4994902;28;20631;-65
2022/09/03 11:43:53;;;;;;;4.63;2.00;;;;;;;25.86;34.98;101379.88;4988781;28;20632;-65
2022/09/03 11:46:22;;;;;;;3.72;2.13;;;;;;;25.86;34.98;101387.88;4972483;28;20038;-70
2022/09/03 11:48:54;;;;;;;1.70;1.60;;;;;;;25.82;35.31;101378.63;4992183;28;20041;-70
2022/09/03 11:51:28;;;;;;;4.20;1.75;;;;;;;25.87;35.41;101393.00;4993539;28;20037;-72